Aberdeen Gardens, Washington
Current Conditions -  °F | °C
As of 1:53 AM on Thursday 29 Jan 2015 (Local Time) from KHQM Reporting Station
Haze Haze  
Wind Chill: 41°   Ceiling: Unl
Heat Index: 45°   Visibility: 6mi
Dew Point: 43°   Wind: 8mph
Humidity: 93%   Direction: 70°ENE
Pressure: 30.33"   Gusts: NA
Location:  47.1445°N, 123.771°W
Report Text: KHQM 290953Z AUTO 07007KT 6SM BR FEW110 07/06 A3033 RMK AO2 SLP274 T00720061 $
Loading
Personal Weather Stations






























Interactive Weather Map New forecast layout! Learn more

10-Day Weather Forecast

Advertisements
Track Severe Weather on mobile